Time;durP1;ratioP1;P1;durP2;ratioP2;P2;SDS_P1;SDS_P2;PMS_P1;PMS_P2;Temp;Humidity;BMP_temperature;BMP_pressure;BME280_temperature;BME280_humidity;BME280_pressure;Samples;Min_cycle;Max_cycle;Signal;HPM_P1;HPM_P2
2022/10/05 00:02:17;;;;;;;9.40;7.03;;;;;;;10.79;100.00;154131.28;5056267;28;20435;-74
2022/10/05 00:04:46;;;;;;;6.90;6.20;;;;;;;10.82;100.00;154137.78;5049349;28;20464;-74
2022/10/05 00:07:14;;;;;;;8.03;5.87;;;;;;;10.84;100.00;154142.94;5054873;28;20450;-74
2022/10/05 00:09:41;;;;;;;9.67;6.60;;;;;;;10.91;100.00;154161.06;5050843;28;20431;-74
2022/10/05 00:12:13;;;;;;;7.40;5.73;;;;;;;10.94;100.00;154170.13;5055745;28;20450;-74
2022/10/05 00:14:40;;;;;;;6.80;6.10;;;;;;;10.95;100.00;154172.75;5036774;28;20960;-74
2022/10/05 00:17:09;;;;;;;8.63;6.00;;;;;;;10.94;100.00;154170.13;5055651;28;20439;-74
2022/10/05 00:19:38;;;;;;;6.90;6.20;;;;;;;10.97;100.00;154177.91;5036513;28;20435;-74
2022/10/05 00:22:11;;;;;;;8.20;6.07;;;;;;;10.96;100.00;154175.31;5020075;28;20439;-74
2022/10/05 00:24:38;;;;;;;6.57;5.87;;;;;;;10.98;100.00;154180.53;5036072;28;20466;-74
2022/10/05 00:27:14;;;;;;;11.23;5.80;;;;;;;10.96;100.00;154174.06;5055249;28;20451;-74
2022/10/05 00:29:41;;;;;;;9.80;5.00;;;;;;;10.96;100.00;154175.31;5021462;28;20462;-74
2022/10/05 00:32:08;;;;;;;7.13;5.70;;;;;;;10.98;100.00;154180.53;5037914;28;20451;-74
2022/10/05 00:34:35;;;;;;;6.80;5.20;;;;;;;10.95;100.00;154172.75;5036096;28;20588;-74
2022/10/05 00:37:02;;;;;;;6.50;5.67;;;;;;;10.95;100.00;154172.75;5028706;28;20443;-74
2022/10/05 00:39:30;;;;;;;5.50;5.00;;;;;;;10.97;100.00;154176.59;5035678;28;20428;-74
2022/10/05 00:42:11;;;;;;;6.50;5.17;;;;;;;10.98;100.00;154180.53;5033820;28;20440;-74
2022/10/05 00:44:41;;;;;;;6.57;5.73;;;;;;;10.97;100.00;154176.59;5030573;28;20458;-74
2022/10/05 00:47:23;;;;;;;5.40;4.90;;;;;;;10.94;100.00;154168.81;5037458;28;20785;-74
2022/10/05 00:50:17;;;;;;;8.30;5.43;;;;;;;10.93;100.00;154167.53;5030607;28;20446;-74
2022/10/05 00:52:50;;;;;;;6.80;5.17;;;;;;;10.95;100.00;154172.75;5018676;28;20485;-74
2022/10/05 00:55:34;;;;;;;5.77;5.23;;;;;;;10.95;100.00;154171.44;5052412;28;20470;-74
2022/10/05 00:58:10;;;;;;;6.60;5.83;;;;;;;10.91;100.00;154162.34;5037098;28;20929;-74
2022/10/05 01:00:41;;;;;;;6.27;5.67;;;;;;;10.87;100.00;154152.03;5054861;28;20443;-74
2022/10/05 01:03:16;;;;;;;7.03;6.33;;;;;;;10.87;100.00;154152.03;5034956;28;20486;-74
2022/10/05 01:05:51;;;;;;;6.13;5.20;;;;;;;10.85;100.00;154146.84;5052729;28;20477;-74
2022/10/05 01:08:26;;;;;;;8.40;6.03;;;;;;;10.81;100.00;154136.47;5036999;28;20869;-74
2022/10/05 01:11:01;;;;;;;8.07;5.80;;;;;;;10.80;100.00;154133.84;5033374;28;20482;-74
2022/10/05 01:13:32;;;;;;;7.30;5.77;;;;;;;10.77;100.00;154124.81;5053748;28;20422;-74
2022/10/05 01:16:05;;;;;;;6.97;5.83;;;;;;;10.75;100.00;154120.91;5034443;28;20481;-74
2022/10/05 01:18:37;;;;;;;6.57;5.80;;;;;;;10.72;100.00;154113.13;5036302;28;20802;-74
2022/10/05 01:21:08;;;;;;;6.53;5.87;;;;;;;10.68;100.00;154102.78;5016968;28;20444;-74
2022/10/05 01:23:59;;;;;;;7.57;6.67;;;;;;;10.62;100.00;154087.25;5004670;28;20454;-75
2022/10/05 01:26:42;;;;;;;7.33;6.00;;;;;;;10.62;100.00;154087.25;5034256;28;20482;-74
2022/10/05 01:29:15;;;;;;;7.00;6.03;;;;;;;10.59;100.00;154079.47;5050678;28;20447;-74
2022/10/05 01:31:47;;;;;;;7.87;6.43;;;;;;;10.58;100.00;154075.59;5054349;28;20447;-74
2022/10/05 01:34:22;;;;;;;8.77;6.70;;;;;;;10.54;100.00;154065.28;5017746;28;20542;-74
2022/10/05 01:36:54;;;;;;;7.47;6.43;;;;;;;10.49;100.00;154053.59;5035504;28;20454;-74
2022/10/05 01:39:25;;;;;;;9.97;7.40;;;;;;;10.49;100.00;154052.28;5053648;28;20441;-74
2022/10/05 01:42:00;;;;;;;9.70;6.50;;;;;;;10.50;100.00;154056.19;5036062;28;20451;-74
2022/10/05 01:44:31;;;;;;;7.10;6.13;;;;;;;10.48;100.00;154051.03;5034893;28;20489;-74
2022/10/05 01:47:02;;;;;;;6.93;5.93;;;;;;;10.43;100.00;154038.09;5033223;28;20447;-74
2022/10/05 01:49:37;;;;;;;8.60;7.40;;;;;;;10.38;100.00;154025.09;5054025;28;20522;-74
2022/10/05 01:52:16;;;;;;;7.00;5.90;;;;;;;10.36;100.00;154019.94;5035820;28;20438;-75
2022/10/05 01:54:54;;;;;;;7.10;6.40;;;;;;;10.36;100.00;154019.94;5052045;28;20475;-74
2022/10/05 01:57:29;;;;;;;7.43;6.63;;;;;;;10.31;100.00;154008.28;5053350;28;20485;-74
2022/10/05 02:00:04;;;;;;;7.70;6.90;;;;;;;10.32;100.00;154010.91;5019778;28;20536;-74
2022/10/05 02:02:43;;;;;;;7.93;6.50;;;;;;;10.28;100.00;154000.50;5052974;28;20450;-74
2022/10/05 02:05:12;;;;;;;8.60;7.57;;;;;;;10.29;100.00;154001.81;5050635;28;20562;-74
2022/10/05 02:07:43;;;;;;;9.00;7.60;;;;;;;10.28;100.00;153999.22;5036088;28;20455;-74
2022/10/05 02:10:17;;;;;;;8.00;7.27;;;;;;;10.24;100.00;153988.88;5032099;28;20444;-74
2022/10/05 02:12:44;;;;;;;10.83;8.50;;;;;;;10.22;100.00;153983.66;5029326;28;20485;-74
2022/10/05 02:15:15;;;;;;;9.23;7.53;;;;;;;10.19;100.00;153977.19;5035358;28;21078;-74
2022/10/05 02:17:44;;;;;;;8.50;6.43;;;;;;;10.18;100.00;153974.63;5051300;28;20458;-74
2022/10/05 02:20:15;;;;;;;8.43;7.33;;;;;;;10.20;100.00;153978.50;5035941;28;20500;-74
2022/10/05 02:22:45;;;;;;;7.90;6.97;;;;;;;10.19;100.00;153977.19;5022619;28;20470;-74
2022/10/05 02:25:15;;;;;;;10.23;7.60;;;;;;;10.20;100.00;153979.81;5015349;28;20464;-75
2022/10/05 02:27:46;;;;;;;8.47;7.67;;;;;;;10.19;100.00;153975.94;5015526;28;20920;-74
2022/10/05 02:30:16;;;;;;;9.07;7.93;;;;;;;10.20;100.00;153978.50;4999178;28;20494;-74
2022/10/05 02:32:49;;;;;;;7.83;7.03;;;;;;;10.17;100.00;153972.03;5014580;28;20541;-74
2022/10/05 02:35:18;;;;;;;10.23;8.80;;;;;;;10.17;100.00;153972.03;5018395;28;20466;-74
2022/10/05 02:37:53;;;;;;;8.63;7.50;;;;;;;10.16;100.00;153968.16;5032718;28;20451;-74
2022/10/05 02:40:28;;;;;;;9.20;8.10;;;;;;;10.13;100.00;153961.69;5051159;28;20450;-74
2022/10/05 02:43:01;;;;;;;7.77;6.97;;;;;;;10.14;100.00;153963.00;5053297;28;20522;-74
2022/10/05 02:45:35;;;;;;;9.10;8.20;;;;;;;10.12;100.00;153957.72;5034900;28;20486;-74
2022/10/05 02:48:08;;;;;;;8.70;7.53;;;;;;;10.11;100.00;153955.19;5011328;28;20523;-74
2022/10/05 02:50:43;;;;;;;10.60;7.63;;;;;;;10.13;100.00;153961.69;5030711;28;20466;-74
2022/10/05 02:53:22;;;;;;;10.10;8.70;;;;;;;10.12;100.00;153957.72;5033401;28;20844;-74
2022/10/05 02:55:53;;;;;;;9.20;8.00;;;;;;;10.15;100.00;153965.56;5030967;28;20908;-74
2022/10/05 02:58:23;;;;;;;10.07;8.20;;;;;;;10.13;100.00;153960.41;5035121;28;20878;-74
2022/10/05 03:00:57;;;;;;;8.87;7.87;;;;;;;10.09;100.00;153951.25;5034035;28;20558;-74
2022/10/05 03:03:29;;;;;;;13.70;8.67;;;;;;;10.09;100.00;153949.97;5034616;28;20434;-74
2022/10/05 03:06:00;;;;;;;8.47;7.57;;;;;;;10.03;100.00;153934.47;5017337;28;20571;-74
2022/10/05 03:08:31;;;;;;;9.00;7.17;;;;;;;10.04;100.00;153938.34;5034432;28;20485;-74
2022/10/05 03:11:06;;;;;;;14.03;7.77;;;;;;;10.07;100.00;153946.09;5016874;28;20463;-74
2022/10/05 03:13:40;;;;;;;10.10;8.73;;;;;;;10.09;100.00;153949.97;5013946;28;21129;-74
2022/10/05 03:16:18;;;;;;;11.23;8.87;;;;;;;10.07;100.00;153944.81;5034707;28;20482;-74
2022/10/05 03:18:55;;;;;;;10.10;8.37;;;;;;;10.05;100.00;153940.94;5017363;28;20462;-74
2022/10/05 03:21:33;;;;;;;9.63;8.50;;;;;;;10.03;100.00;153935.78;5052613;28;20505;-74
2022/10/05 03:24:12;;;;;;;9.63;8.57;;;;;;;10.02;100.00;153931.88;5017363;28;20441;-74
2022/10/05 03:26:44;;;;;;;11.10;8.80;;;;;;;10.04;100.00;153937.03;5017842;28;20532;-74
2022/10/05 03:29:21;;;;;;;10.80;8.23;;;;;;;10.07;100.00;153946.09;5013350;28;20463;-74
2022/10/05 03:31:54;;;;;;;8.87;7.50;;;;;;;10.07;100.00;153944.81;5015146;28;20446;-74
2022/10/05 03:34:26;;;;;;;11.90;9.00;;;;;;;10.04;100.00;153938.34;5034092;28;20443;-74
2022/10/05 03:36:58;;;;;;;10.93;9.53;;;;;;;10.04;100.00;153937.03;5033144;28;20450;-74
2022/10/05 03:39:29;;;;;;;10.30;8.53;;;;;;;10.03;100.00;153934.47;5017391;28;20493;-74
2022/10/05 03:42:02;;;;;;;9.60;8.00;;;;;;;10.02;100.00;153931.88;5032219;28;20463;-74
2022/10/05 03:44:38;;;;;;;11.40;9.43;;;;;;;9.99;100.00;153924.09;5016786;28;20447;-74
2022/10/05 03:47:14;;;;;;;9.03;8.17;;;;;;;9.97;100.00;153918.91;5017949;28;20541;-74
2022/10/05 03:49:52;;;;;;;9.30;8.03;;;;;;;9.97;100.00;153918.91;5032860;28;20451;-74
2022/10/05 03:52:23;;;;;;;12.30;9.40;;;;;;;9.95;100.00;153915.06;5032509;28;20521;-74
2022/10/05 03:54:53;;;;;;;10.70;8.57;;;;;;;9.98;100.00;153922.78;5051426;28;20427;-74
2022/10/05 03:57:22;;;;;;;12.00;9.00;;;;;;;9.95;100.00;153913.75;5034080;28;20490;-74
2022/10/05 03:59:56;;;;;;;11.17;9.40;;;;;;;9.90;100.00;153900.81;5033705;28;20497;-74
2022/10/05 04:02:26;;;;;;;10.43;8.90;;;;;;;9.87;100.00;153894.34;5051365;28;20450;-74
2022/10/05 04:04:56;;;;;;;9.10;8.10;;;;;;;9.85;100.00;153887.88;5030043;28;20848;-74
2022/10/05 04:07:30;;;;;;;9.57;8.60;;;;;;;9.79;100.00;153874.91;5017677;28;20446;-74
2022/10/05 04:09:57;;;;;;;11.27;9.10;;;;;;;9.75;100.00;153864.56;5032561;28;20497;-74
2022/10/05 04:12:27;;;;;;;9.87;8.87;;;;;;;9.71;100.00;153852.94;5017055;28;20524;-74
2022/10/05 04:14:57;;;;;;;11.13;9.07;;;;;;;9.64;100.00;153836.09;5016754;28;20447;-74
2022/10/05 04:17:31;;;;;;;9.70;8.33;;;;;;;9.66;100.00;153841.25;5034213;28;20809;-74
2022/10/05 04:20:00;;;;;;;11.30;8.80;;;;;;;9.65;100.00;153837.41;5033754;28;20504;-74
2022/10/05 04:22:30;;;;;;;10.23;9.10;;;;;;;9.62;100.00;153830.94;5012870;28;20973;-74
2022/10/05 04:25:00;;;;;;;10.33;9.23;;;;;;;9.57;100.00;153816.69;5033472;28;20496;-74
2022/10/05 04:27:32;;;;;;;9.87;8.37;;;;;;;9.52;100.00;153805.06;5017966;28;20442;-75
2022/10/05 04:30:04;;;;;;;9.17;8.27;;;;;;;9.50;100.00;153798.59;5030649;28;20447;-76
2022/10/05 04:32:41;;;;;;;9.10;8.10;;;;;;;9.47;100.00;153792.13;5052190;28;20918;-76
2022/10/05 04:35:26;;;;;;;9.27;8.30;;;;;;;9.45;100.00;153786.94;5033805;28;20439;-75
2022/10/05 04:38:00;;;;;;;7.80;7.00;;;;;;;9.38;100.00;153768.84;5029064;28;20534;-75
2022/10/05 04:40:38;;;;;;;10.70;8.20;;;;;;;9.33;100.00;153755.91;5033920;28;20474;-75
2022/10/05 04:43:09;;;;;;;9.07;8.17;;;;;;;9.29;100.00;153745.59;5055254;28;20773;-75
2022/10/05 04:45:48;;;;;;;9.80;8.13;;;;;;;9.25;100.00;153733.91;5021051;28;20482;-76
2022/10/05 04:48:26;;;;;;;11.93;8.50;;;;;;;9.23;100.00;153728.75;5048550;28;20857;-75
2022/10/05 04:51:06;;;;;;;10.80;9.17;;;;;;;9.21;100.00;153724.88;5035405;28;20975;-75
2022/10/05 04:53:35;;;;;;;11.50;9.63;;;;;;;9.18;100.00;153717.13;5019435;28;20818;-76
2022/10/05 04:56:09;;;;;;;10.30;9.03;;;;;;;9.16;100.00;153713.22;5034385;28;20483;-75
2022/10/05 04:58:45;;;;;;;10.37;9.07;;;;;;;9.11;100.00;153698.97;5035862;28;20450;-75
2022/10/05 05:01:32;;;;;;;8.77;7.80;;;;;;;9.12;100.00;153701.59;5019091;28;20466;-76
2022/10/05 05:04:15;;;;;;;11.00;8.17;;;;;;;9.08;100.00;153691.25;5036929;28;20423;-75
2022/10/05 05:06:46;;;;;;;9.67;8.67;;;;;;;9.06;100.00;153686.06;5010599;28;20474;-75
2022/10/05 05:09:24;;;;;;;9.13;8.23;;;;;;;9.01;100.00;153673.13;5035133;28;20537;-75
2022/10/05 05:12:02;;;;;;;9.80;8.17;;;;;;;8.97;100.00;153662.81;5012655;28;20808;-75
2022/10/05 05:14:46;;;;;;;9.30;8.30;;;;;;;8.95;100.00;153657.59;5019152;28;20462;-75
2022/10/05 05:17:24;;;;;;;12.13;8.97;;;;;;;8.91;100.00;153648.56;5054350;28;20412;-75
2022/10/05 05:19:57;;;;;;;8.27;7.47;;;;;;;8.92;100.00;153649.88;5034603;28;20549;-75
2022/10/05 05:22:29;;;;;;;10.47;8.50;;;;;;;8.87;100.00;153638.22;5035576;28;20445;-75
2022/10/05 05:25:13;;;;;;;9.43;8.43;;;;;;;8.85;100.00;153631.75;5054233;28;20836;-75
2022/10/05 05:27:42;;;;;;;11.33;9.07;;;;;;;8.86;100.00;153634.34;5036507;28;20438;-75
2022/10/05 05:30:19;;;;;;;9.93;8.53;;;;;;;8.86;100.00;153634.34;5031296;28;20461;-75
2022/10/05 05:33:07;;;;;;;13.40;9.40;;;;;;;8.83;100.00;153626.59;5009128;28;20430;-75
2022/10/05 05:36:00;;;;;;;9.63;8.60;;;;;;;8.83;100.00;153626.59;5013035;28;20838;-75
2022/10/05 05:38:31;;;;;;;11.40;9.40;;;;;;;8.83;100.00;153626.59;5015659;28;20444;-75
2022/10/05 05:41:09;;;;;;;8.87;7.73;;;;;;;8.86;100.00;153634.34;5032063;28;20481;-75
2022/10/05 05:43:51;;;;;;;12.40;8.93;;;;;;;8.88;100.00;153639.50;5020025;28;20453;-75
2022/10/05 05:46:23;;;;;;;10.03;8.70;;;;;;;8.93;100.00;153652.44;5031404;28;20810;-75
2022/10/05 05:48:51;;;;;;;10.90;9.60;;;;;;;8.97;100.00;153662.81;5049986;28;20462;-75
2022/10/05 05:51:25;;;;;;;11.90;10.60;;;;;;;8.97;100.00;153662.81;5034080;28;20500;-75
2022/10/05 05:53:56;;;;;;;12.90;9.07;;;;;;;8.98;100.00;153665.34;5035059;28;20497;-75
2022/10/05 05:56:31;;;;;;;11.17;9.20;;;;;;;9.07;100.00;153689.97;5051978;28;20463;-75
2022/10/05 05:59:03;;;;;;;11.80;9.00;;;;;;;9.13;100.00;153705.44;5034716;28;20454;-73
2022/10/05 06:01:34;;;;;;;11.00;8.67;;;;;;;9.19;100.00;153719.69;5008595;28;21040;-73
2022/10/05 06:04:10;;;;;;;13.30;11.60;;;;;;;9.29;100.00;153745.59;5029137;28;20546;-73
2022/10/05 06:06:42;;;;;;;11.63;10.23;;;;;;;9.46;100.00;153788.22;5016361;28;20474;-73
2022/10/05 06:09:17;;;;;;;13.17;11.70;;;;;;;9.66;100.00;153840.00;5018105;28;20447;-73
2022/10/05 06:11:57;;;;;;;13.57;12.07;;;;;;;9.89;100.00;153898.22;5012115;28;20455;-74
2022/10/05 06:14:32;;;;;;;11.63;10.40;;;;;;;10.17;100.00;153970.72;5030128;28;20458;-73
2022/10/05 06:17:02;;;;;;;10.87;9.77;;;;;;;10.48;100.00;154051.03;5033408;28;20501;-73
2022/10/05 06:19:29;;;;;;;13.53;10.80;;;;;;;10.78;100.00;154127.38;5013197;28;20462;-74
2022/10/05 06:22:02;;;;;;;13.60;10.30;;;;;;;11.05;100.00;154196.03;5035280;28;20446;-75
2022/10/05 06:24:32;;;;;;;12.63;10.23;;;;;;;11.28;100.00;154255.66;5018485;28;20473;-75
2022/10/05 06:27:26;;;;;;;11.40;10.10;;;;;;;11.56;100.00;154328.19;5035107;28;20478;-75
2022/10/05 06:30:03;;;;;;;13.23;10.03;;;;;;;11.84;100.00;154400.78;5035502;28;20542;-75
2022/10/05 06:32:33;;;;;;;15.20;9.50;;;;;;;12.13;100.00;154475.97;5035247;28;20592;-75
2022/10/05 06:35:09;;;;;;;11.07;9.60;;;;;;;12.36;100.00;154534.34;5033877;28;20450;-76
2022/10/05 06:38:05;;;;;;;10.40;9.30;;;;;;;12.64;100.00;154605.66;5009427;28;20439;-76
2022/10/05 06:40:41;;;;;;;11.60;9.10;;;;;;;12.81;100.00;154649.75;5015685;28;20990;-75
2022/10/05 06:43:29;;;;;;;10.57;9.50;;;;;;;13.09;100.00;154722.44;5048849;28;20534;-75
2022/10/05 06:46:32;;;;;;;11.10;9.10;;;;;;;13.43;100.00;154810.66;5034160;28;20828;-90
2022/10/05 06:49:18;;;;;;;10.17;9.17;;;;;;;13.66;100.00;154867.78;5015900;28;20456;-90
2022/10/05 06:52:11;;;;;;;9.20;8.27;;;;;;;14.04;100.00;154966.41;5035980;28;20436;-90
2022/10/05 06:54:52;;;;;;;10.10;8.50;;;;;;;14.34;100.00;155044.41;5032251;28;20798;-90
2022/10/05 06:57:37;;;;;;;11.27;9.10;;;;;;;14.56;100.00;155100.25;5033809;28;20434;-90
2022/10/05 07:00:11;;;;;;;9.80;8.90;;;;;;;14.78;100.00;155157.38;5036483;28;20431;-90
2022/10/05 07:02:43;;;;;;;10.27;9.17;;;;;;;14.92;99.39;155192.47;5034920;28;20431;-90
2022/10/05 07:05:36;;;;;;;12.53;9.77;;;;;;;15.14;99.00;155250.91;5053406;28;20470;-89
2022/10/05 07:08:09;;;;;;;10.47;9.37;;;;;;;15.30;98.04;155289.91;5035888;28;20443;-89
2022/10/05 07:10:44;;;;;;;11.07;9.00;;;;;;;15.41;96.36;155319.78;5015741;28;20470;-89
2022/10/05 07:13:25;;;;;;;11.23;9.07;;;;;;;15.76;96.45;155409.53;5037395;28;20447;-90
2022/10/05 07:15:59;;;;;;;10.93;9.83;;;;;;;15.93;93.25;155452.44;5029240;28;20534;-90
2022/10/05 07:18:48;;;;;;;10.47;9.47;;;;;;;16.10;90.09;155497.94;5015821;28;20451;-89
2022/10/05 07:21:21;;;;;;;9.73;8.73;;;;;;;16.30;90.92;155548.66;4999391;28;20555;-90
2022/10/05 07:24:01;;;;;;;10.53;9.53;;;;;;;16.44;90.23;155585.09;5035643;28;20439;-89
2022/10/05 07:26:33;;;;;;;9.80;8.90;;;;;;;16.54;88.74;155611.16;5034998;28;20525;-89
2022/10/05 07:29:23;;;;;;;10.77;9.73;;;;;;;16.60;88.55;155625.47;5035167;28;20451;-90
2022/10/05 07:31:59;;;;;;;11.00;9.70;;;;;;;16.63;88.24;155634.53;5018725;28;20870;-90
2022/10/05 07:34:34;;;;;;;10.50;9.23;;;;;;;16.81;88.43;155681.38;5052186;28;20457;-89
2022/10/05 07:39:56;;;;;;;10.10;9.20;;;;;;;16.88;85.99;155699.63;5034995;28;20520;-89
2022/10/05 07:42:36;;;;;;;11.03;8.17;;;;;;;16.94;85.39;155713.94;5052378;28;20493;-89
2022/10/05 07:45:09;;;;;;;10.03;9.03;;;;;;;16.84;84.84;155689.19;5005949;28;20447;-89
2022/10/05 07:47:40;;;;;;;10.20;9.20;;;;;;;16.84;86.97;155689.19;5051563;28;20475;-90
2022/10/05 07:50:13;;;;;;;9.70;8.90;;;;;;;16.71;86.89;155655.34;5014173;28;20442;-90
2022/10/05 07:52:41;;;;;;;9.93;8.93;;;;;;;16.66;86.97;155642.34;5018943;28;20431;-89
2022/10/05 07:55:17;;;;;;;9.90;8.90;;;;;;;16.75;86.35;155665.78;5034566;28;20483;-89
2022/10/05 07:57:50;;;;;;;10.30;9.20;;;;;;;16.68;87.23;155647.53;5018856;28;20991;-89
2022/10/05 08:00:20;;;;;;;9.37;8.57;;;;;;;16.75;87.46;155665.78;5018854;28;20930;-89
2022/10/05 08:02:49;;;;;;;9.40;8.00;;;;;;;16.92;87.82;155710.00;5018759;28;20435;-89
2022/10/05 08:05:25;;;;;;;12.07;8.90;;;;;;;17.01;86.40;155733.44;5043751;28;20476;-89
2022/10/05 08:07:59;;;;;;;8.60;7.80;;;;;;;16.98;86.23;155725.63;5012319;28;20479;-89
2022/10/05 08:10:36;;;;;;;10.63;8.30;;;;;;;16.96;87.65;155720.44;5053236;28;20420;-90
2022/10/05 08:13:16;;;;;;;9.60;8.47;;;;;;;16.99;87.14;155728.25;5053504;28;20878;-90
2022/10/05 08:15:47;;;;;;;10.33;9.07;;;;;;;16.90;86.12;155704.81;5055252;28;20446;-90
2022/10/05 08:18:19;;;;;;;9.57;8.57;;;;;;;16.85;86.66;155691.81;5057312;28;20431;-90
2022/10/05 08:20:47;;;;;;;8.70;7.80;;;;;;;16.85;86.21;155691.81;5057236;28;20415;-89
2022/10/05 08:23:22;;;;;;;8.00;7.20;;;;;;;16.68;88.57;155647.53;5039245;28;20442;-89
2022/10/05 08:26:06;;;;;;;8.17;7.37;;;;;;;16.63;87.37;155634.53;5039463;28;20434;-88
2022/10/05 08:28:37;;;;;;;8.30;7.50;;;;;;;16.60;86.86;155626.72;5057353;28;20434;-88
2022/10/05 08:31:12;;;;;;;7.43;6.70;;;;;;;16.64;87.71;155635.84;5056993;28;20430;-88
2022/10/05 08:33:45;;;;;;;8.10;7.40;;;;;;;16.67;86.89;155644.97;5055796;28;20446;-89
2022/10/05 08:36:13;;;;;;;8.20;7.50;;;;;;;16.58;87.84;155620.22;5057072;28;20434;-87
2022/10/05 08:38:40;;;;;;;8.43;7.63;;;;;;;16.62;90.05;155631.97;5056617;28;20435;-88
2022/10/05 08:41:42;;;;;;;9.30;7.30;;;;;;;16.67;88.66;155643.66;5038862;28;20426;-89
2022/10/05 08:44:41;;;;;;;7.90;7.20;;;;;;;16.73;87.56;155660.53;5037390;28;20450;-74
2022/10/05 08:47:30;;;;;;;7.90;7.10;;;;;;;16.71;87.81;155655.34;5043920;28;21027;-76
2022/10/05 08:50:06;;;;;;;7.33;6.57;;;;;;;16.74;90.26;155663.16;5036522;28;20914;-73
2022/10/05 08:52:42;;;;;;;7.27;6.57;;;;;;;16.76;88.89;155668.38;5053358;28;20450;-76
2022/10/05 08:55:33;;;;;;;9.33;6.80;;;;;;;16.80;89.36;155678.78;5017426;28;20569;-76
2022/10/05 08:58:27;;;;;;;7.73;6.27;;;;;;;16.87;89.37;155695.69;5050892;28;20446;-76
2022/10/05 09:00:59;;;;;;;8.80;7.33;;;;;;;16.89;89.07;155700.94;5026348;28;20466;-75
2022/10/05 09:03:51;;;;;;;7.20;6.47;;;;;;;16.95;90.04;155716.50;5050732;28;20478;-76
2022/10/05 09:06:43;;;;;;;7.00;6.30;;;;;;;17.07;89.58;155746.44;5018313;28;20451;-76
2022/10/05 09:09:39;;;;;;;8.10;6.43;;;;;;;16.98;90.22;155724.31;5047817;28;20552;-76
2022/10/05 09:12:31;;;;;;;7.37;6.67;;;;;;;17.20;88.15;155780.28;5034361;28;20454;-76
2022/10/05 09:15:15;;;;;;;7.30;6.53;;;;;;;17.20;87.43;155780.28;5012879;28;20455;-76
2022/10/05 09:18:09;;;;;;;7.50;6.83;;;;;;;17.18;88.52;155776.41;5034444;28;20537;-76
2022/10/05 09:20:46;;;;;;;6.60;6.00;;;;;;;17.21;88.67;155782.91;5034038;28;20454;-76
2022/10/05 09:23:13;;;;;;;7.10;6.10;;;;;;;17.20;89.16;155781.59;5036185;28;20484;-76
2022/10/05 09:25:56;;;;;;;7.53;5.93;;;;;;;17.23;89.16;155789.41;5018530;28;20447;-90
2022/10/05 09:28:32;;;;;;;7.67;6.17;;;;;;;17.31;88.57;155808.91;5017987;28;20479;-90
2022/10/05 09:31:12;;;;;;;5.70;5.20;;;;;;;17.30;88.66;155806.28;5035799;28;20424;-89
2022/10/05 09:33:56;;;;;;;6.13;5.53;;;;;;;17.28;89.42;155802.41;5051646;28;20474;-89
2022/10/05 09:36:54;;;;;;;9.00;5.80;;;;;;;17.32;90.21;155811.50;5038132;28;20431;-89
2022/10/05 09:39:35;;;;;;;5.10;4.70;;;;;;;17.34;88.68;155818.00;5055931;28;20435;-89
2022/10/05 09:42:29;;;;;;;5.53;5.03;;;;;;;17.43;87.97;155840.13;5055538;28;20506;-89
2022/10/05 09:45:25;;;;;;;5.67;4.60;;;;;;;17.50;89.26;155858.38;5029294;28;20455;-75
2022/10/05 09:48:05;;;;;;;4.83;4.37;;;;;;;17.57;87.36;155877.97;5034491;28;20490;-76
2022/10/05 09:51:08;;;;;;;4.47;4.07;;;;;;;17.62;88.06;155889.66;5051848;28;20510;-76
2022/10/05 09:54:04;;;;;;;5.20;4.50;;;;;;;17.79;87.33;155932.63;5031387;28;20557;-76
2022/10/05 09:56:42;;;;;;;4.90;4.20;;;;;;;17.99;86.01;155984.69;5028450;28;20487;-76
2022/10/05 09:59:33;;;;;;;5.20;4.63;;;;;;;17.85;86.77;155948.22;5040759;28;20460;-76
2022/10/05 10:02:20;;;;;;;4.70;4.30;;;;;;;17.86;88.54;155950.84;5030538;28;20937;-76
2022/10/05 10:05:04;;;;;;;5.60;4.67;;;;;;;17.91;87.74;155965.16;5045628;28;20455;-76
2022/10/05 10:08:11;;;;;;;5.07;3.80;;;;;;;18.11;86.66;156015.94;5035223;28;20880;-76
2022/10/05 10:11:08;;;;;;;5.37;4.33;;;;;;;18.38;86.19;156084.97;4985302;28;20450;-76
2022/10/05 10:14:14;;;;;;;4.97;4.30;;;;;;;18.51;85.87;156118.88;5035371;28;20443;-76
2022/10/05 10:17:05;;;;;;;6.37;3.93;;;;;;;18.41;86.03;156092.78;5046043;28;21049;-76
2022/10/05 10:20:10;;;;;;;4.13;3.73;;;;;;;18.47;86.20;156108.44;5036694;28;20459;-76
2022/10/05 10:23:02;;;;;;;5.93;3.70;;;;;;;18.56;84.93;156133.19;4987535;28;20442;-76
2022/10/05 10:25:54;;;;;;;3.47;3.00;;;;;;;18.47;85.12;156108.44;5044977;28;20450;-76
2022/10/05 10:28:51;;;;;;;4.20;3.27;;;;;;;18.54;85.12;156126.69;5039224;28;20493;-76
2022/10/05 10:31:29;;;;;;;2.73;2.50;;;;;;;18.66;84.58;156158.00;5050598;28;20447;-76
2022/10/05 10:34:16;;;;;;;3.60;3.30;;;;;;;18.65;85.74;156155.38;5028479;28;20458;-76
2022/10/05 10:36:59;;;;;;;5.77;3.07;;;;;;;18.98;84.08;156240.06;5030458;28;20493;-76
2022/10/05 10:39:36;;;;;;;3.47;3.00;;;;;;;18.82;84.55;156200.94;5030259;28;20462;-76
2022/10/05 10:42:23;;;;;;;3.37;3.07;;;;;;;18.76;84.05;156185.34;5046891;28;20549;-76
2022/10/05 10:45:12;;;;;;;3.40;2.50;;;;;;;18.85;82.70;156207.47;5022589;28;20463;-77
2022/10/05 10:47:59;;;;;;;3.03;2.73;;;;;;;18.90;83.94;156220.53;5028800;28;20985;-76
2022/10/05 10:50:50;;;;;;;2.90;2.60;;;;;;;18.97;81.45;156238.75;5048266;28;20430;-76
2022/10/05 10:53:32;;;;;;;3.27;3.03;;;;;;;19.29;81.62;156320.84;5038919;28;20467;-76
2022/10/05 10:56:14;;;;;;;5.13;3.73;;;;;;;19.40;82.50;156350.91;5008196;28;20487;-76
2022/10/05 10:59:03;;;;;;;4.60;4.00;;;;;;;19.55;83.24;156387.38;5020874;28;20484;-76
2022/10/05 11:01:35;;;;;;;4.67;3.17;;;;;;;19.67;81.90;156418.69;5031382;28;20414;-76
2022/10/05 11:04:30;;;;;;;3.63;3.03;;;;;;;19.63;80.76;156408.22;5029176;28;20443;-75
2022/10/05 11:07:25;;;;;;;4.17;3.33;;;;;;;19.54;82.16;156384.78;4978202;28;20452;-74
2022/10/05 11:10:10;;;;;;;3.60;3.10;;;;;;;19.47;82.37;156367.81;5012586;28;21023;-75
2022/10/05 11:13:15;;;;;;;3.67;3.37;;;;;;;19.60;80.74;156400.41;5003183;28;21013;-74
2022/10/05 11:16:15;;;;;;;3.13;2.83;;;;;;;19.57;80.68;156392.56;5021014;28;20447;-74
2022/10/05 11:19:05;;;;;;;3.80;3.13;;;;;;;19.66;79.41;156417.38;5009621;28;20455;-74
2022/10/05 11:21:35;;;;;;;3.80;2.70;;;;;;;19.85;78.34;156465.63;4994865;28;20467;-74
2022/10/05 11:24:27;;;;;;;4.03;2.60;;;;;;;19.97;77.53;156496.88;5013003;28;21016;-74
2022/10/05 11:27:15;;;;;;;3.43;2.83;;;;;;;19.93;78.83;156486.47;5031408;28;20933;-75
2022/10/05 11:30:08;;;;;;;5.13;2.97;;;;;;;19.80;79.27;156453.84;5032276;28;20438;-75
2022/10/05 11:32:55;;;;;;;2.93;2.63;;;;;;;19.82;79.86;156459.09;4998914;28;20445;-76
2022/10/05 11:35:42;;;;;;;3.30;3.00;;;;;;;19.92;79.32;156485.16;5011556;28;20453;-75
2022/10/05 11:38:26;;;;;;;3.17;2.87;;;;;;;19.92;79.56;156483.84;5009659;28;20810;-75
2022/10/05 11:41:21;;;;;;;6.90;2.97;;;;;;;19.90;80.29;156479.97;5011276;28;20964;-76
2022/10/05 11:44:09;;;;;;;3.27;2.80;;;;;;;19.98;78.11;156499.50;4995212;28;20452;-75
2022/10/05 11:46:41;;;;;;;3.27;2.60;;;;;;;20.01;80.39;156507.34;4996240;28;20466;-75
2022/10/05 11:49:28;;;;;;;3.17;2.73;;;;;;;20.07;80.26;156522.94;5024391;28;20506;-75
2022/10/05 11:52:06;;;;;;;3.87;3.23;;;;;;;20.03;79.09;156512.53;5011449;28;20424;-75
2022/10/05 11:54:43;;;;;;;3.80;3.07;;;;;;;20.07;78.48;156522.94;5008510;28;20926;-75
2022/10/05 11:57:16;;;;;;;3.13;2.80;;;;;;;20.06;79.39;156520.38;5011265;28;20955;-75
2022/10/05 11:59:48;;;;;;;3.73;3.43;;;;;;;20.07;80.65;156522.94;5025009;28;20451;-75
2022/10/05 12:02:34;;;;;;;5.57;3.20;;;;;;;20.05;78.80;156519.06;5005627;28;20507;-74
2022/10/05 12:05:05;;;;;;;3.30;3.00;;;;;;;19.97;81.21;156498.19;5018938;28;20458;-74
2022/10/05 12:07:37;;;;;;;3.07;2.80;;;;;;;19.97;80.53;156496.88;5011649;28;20467;-75
2022/10/05 12:10:20;;;;;;;3.60;3.10;;;;;;;20.06;78.66;156520.38;4994865;28;20865;-74
2022/10/05 12:13:03;;;;;;;2.80;2.60;;;;;;;20.14;79.60;156539.94;5029866;28;20469;-74